sensor_id;sensor_type;location;lat;lon;timestamp;P1;durP1;ratioP1;P2;durP2;ratioP2
14030;SDS011;7090;49.436;8.490;2023-04-25T00:02:02;10.30;;;9.90;;
14030;SDS011;7090;49.436;8.490;2023-04-25T00:04:28;10.40;;;10.00;;
14030;SDS011;7090;49.436;8.490;2023-04-25T00:06:54;10.30;;;9.90;;
14030;SDS011;7090;49.436;8.490;2023-04-25T00:09:20;10.40;;;9.90;;
14030;SDS011;7090;49.436;8.490;2023-04-25T00:11:47;10.40;;;10.00;;
14030;SDS011;7090;49.436;8.490;2023-04-25T00:14:13;11.27;;;10.53;;
14030;SDS011;7090;49.436;8.490;2023-04-25T00:16:39;10.67;;;10.07;;
14030;SDS011;7090;49.436;8.490;2023-04-25T00:19:06;9.63;;;9.23;;
14030;SDS011;7090;49.436;8.490;2023-04-25T00:21:32;10.17;;;9.77;;
14030;SDS011;7090;49.436;8.490;2023-04-25T00:23:58;10.00;;;9.60;;
14030;SDS011;7090;49.436;8.490;2023-04-25T00:26:23;10.30;;;9.90;;
14030;SDS011;7090;49.436;8.490;2023-04-25T00:28:49;10.00;;;9.60;;
14030;SDS011;7090;49.436;8.490;2023-04-25T00:31:15;10.47;;;10.07;;
14030;SDS011;7090;49.436;8.490;2023-04-25T00:33:41;10.50;;;10.10;;
14030;SDS011;7090;49.436;8.490;2023-04-25T00:36:06;10.20;;;9.80;;
14030;SDS011;7090;49.436;8.490;2023-04-25T00:38:33;10.60;;;10.20;;
14030;SDS011;7090;49.436;8.490;2023-04-25T00:40:58;10.10;;;9.70;;
14030;SDS011;7090;49.436;8.490;2023-04-25T00:43:25;9.53;;;9.13;;
14030;SDS011;7090;49.436;8.490;2023-04-25T00:45:51;10.13;;;9.63;;
14030;SDS011;7090;49.436;8.490;2023-04-25T00:48:17;8.90;;;8.60;;
14030;SDS011;7090;49.436;8.490;2023-04-25T00:50:49;8.67;;;8.37;;
14030;SDS011;7090;49.436;8.490;2023-04-25T00:53:18;8.60;;;8.30;;
14030;SDS011;7090;49.436;8.490;2023-04-25T00:55:44;9.00;;;8.70;;
14030;SDS011;7090;49.436;8.490;2023-04-25T00:58:10;8.73;;;8.43;;
14030;SDS011;7090;49.436;8.490;2023-04-25T01:00:36;9.17;;;8.77;;
14030;SDS011;7090;49.436;8.490;2023-04-25T01:03:01;8.77;;;8.47;;
14030;SDS011;7090;49.436;8.490;2023-04-25T01:05:28;8.80;;;8.50;;
14030;SDS011;7090;49.436;8.490;2023-04-25T01:07:54;8.90;;;8.60;;
14030;SDS011;7090;49.436;8.490;2023-04-25T01:10:20;10.00;;;9.50;;
14030;SDS011;7090;49.436;8.490;2023-04-25T01:12:45;9.13;;;8.73;;
14030;SDS011;7090;49.436;8.490;2023-04-25T01:15:11;8.87;;;8.47;;
14030;SDS011;7090;49.436;8.490;2023-04-25T01:17:37;8.73;;;8.23;;
14030;SDS011;7090;49.436;8.490;2023-04-25T01:20:04;9.07;;;8.67;;
14030;SDS011;7090;49.436;8.490;2023-04-25T01:22:32;8.30;;;8.00;;
14030;SDS011;7090;49.436;8.490;2023-04-25T01:24:58;8.20;;;7.90;;
14030;SDS011;7090;49.436;8.490;2023-04-25T01:27:25;8.43;;;8.13;;
14030;SDS011;7090;49.436;8.490;2023-04-25T01:29:51;8.20;;;7.90;;
14030;SDS011;7090;49.436;8.490;2023-04-25T01:32:18;7.80;;;7.50;;
14030;SDS011;7090;49.436;8.490;2023-04-25T01:34:45;7.80;;;7.50;;
14030;SDS011;7090;49.436;8.490;2023-04-25T01:37:11;8.60;;;8.20;;
14030;SDS011;7090;49.436;8.490;2023-04-25T01:39:36;7.80;;;7.50;;
14030;SDS011;7090;49.436;8.490;2023-04-25T01:42:02;8.73;;;8.33;;
14030;SDS011;7090;49.436;8.490;2023-04-25T01:44:28;8.27;;;7.97;;
14030;SDS011;7090;49.436;8.490;2023-04-25T01:46:53;8.40;;;8.10;;
14030;SDS011;7090;49.436;8.490;2023-04-25T01:49:19;9.60;;;9.10;;
14030;SDS011;7090;49.436;8.490;2023-04-25T01:51:45;8.40;;;8.10;;
14030;SDS011;7090;49.436;8.490;2023-04-25T01:54:10;10.30;;;9.80;;
14030;SDS011;7090;49.436;8.490;2023-04-25T01:56:37;9.33;;;8.83;;
14030;SDS011;7090;49.436;8.490;2023-04-25T01:59:04;8.80;;;8.40;;
14030;SDS011;7090;49.436;8.490;2023-04-25T02:01:30;7.57;;;7.27;;
14030;SDS011;7090;49.436;8.490;2023-04-25T02:03:56;7.50;;;7.20;;
14030;SDS011;7090;49.436;8.490;2023-04-25T02:06:21;7.63;;;7.33;;
14030;SDS011;7090;49.436;8.490;2023-04-25T02:08:47;7.90;;;7.60;;
14030;SDS011;7090;49.436;8.490;2023-04-25T02:11:12;8.37;;;8.07;;
14030;SDS011;7090;49.436;8.490;2023-04-25T02:13:38;8.90;;;8.60;;
14030;SDS011;7090;49.436;8.490;2023-04-25T02:16:04;8.90;;;8.60;;
14030;SDS011;7090;49.436;8.490;2023-04-25T02:18:30;8.50;;;8.20;;
14030;SDS011;7090;49.436;8.490;2023-04-25T02:20:56;8.27;;;7.97;;
14030;SDS011;7090;49.436;8.490;2023-04-25T02:23:22;9.20;;;8.70;;
14030;SDS011;7090;49.436;8.490;2023-04-25T02:25:48;8.10;;;7.70;;
14030;SDS011;7090;49.436;8.490;2023-04-25T02:28:14;7.53;;;7.23;;
14030;SDS011;7090;49.436;8.490;2023-04-25T02:30:40;7.80;;;7.40;;
14030;SDS011;7090;49.436;8.490;2023-04-25T02:33:05;8.77;;;8.17;;
14030;SDS011;7090;49.436;8.490;2023-04-25T02:35:31;5.63;;;5.43;;
14030;SDS011;7090;49.436;8.490;2023-04-25T02:37:56;7.73;;;7.27;;
14030;SDS011;7090;49.436;8.490;2023-04-25T02:40:22;6.13;;;5.93;;
14030;SDS011;7090;49.436;8.490;2023-04-25T02:42:47;6.10;;;5.80;;
14030;SDS011;7090;49.436;8.490;2023-04-25T02:45:13;7.73;;;7.23;;
14030;SDS011;7090;49.436;8.490;2023-04-25T02:47:39;7.97;;;7.60;;
14030;SDS011;7090;49.436;8.490;2023-04-25T02:50:05;7.10;;;6.70;;
14030;SDS011;7090;49.436;8.490;2023-04-25T02:52:31;7.07;;;6.67;;
14030;SDS011;7090;49.436;8.490;2023-04-25T02:54:56;6.60;;;6.30;;
14030;SDS011;7090;49.436;8.490;2023-04-25T02:57:22;8.30;;;7.80;;
14030;SDS011;7090;49.436;8.490;2023-04-25T02:59:47;6.63;;;6.33;;
14030;SDS011;7090;49.436;8.490;2023-04-25T03:02:13;5.60;;;5.40;;
14030;SDS011;7090;49.436;8.490;2023-04-25T03:04:39;6.03;;;5.83;;
14030;SDS011;7090;49.436;8.490;2023-04-25T03:07:04;6.77;;;6.47;;
14030;SDS011;7090;49.436;8.490;2023-04-25T03:09:30;7.10;;;6.80;;
14030;SDS011;7090;49.436;8.490;2023-04-25T03:11:56;8.07;;;7.37;;
14030;SDS011;7090;49.436;8.490;2023-04-25T03:14:21;6.57;;;6.23;;
14030;SDS011;7090;49.436;8.490;2023-04-25T03:16:47;6.67;;;6.20;;
14030;SDS011;7090;49.436;8.490;2023-04-25T03:19:12;8.90;;;8.30;;
14030;SDS011;7090;49.436;8.490;2023-04-25T03:21:40;7.60;;;7.03;;
14030;SDS011;7090;49.436;8.490;2023-04-25T03:24:06;7.90;;;7.30;;
14030;SDS011;7090;49.436;8.490;2023-04-25T03:26:32;7.50;;;6.90;;
14030;SDS011;7090;49.436;8.490;2023-04-25T03:28:58;9.07;;;8.27;;
14030;SDS011;7090;49.436;8.490;2023-04-25T03:31:23;6.77;;;6.40;;
14030;SDS011;7090;49.436;8.490;2023-04-25T03:33:49;8.80;;;7.87;;
14030;SDS011;7090;49.436;8.490;2023-04-25T03:36:14;6.53;;;6.17;;
14030;SDS011;7090;49.436;8.490;2023-04-25T03:38:40;5.13;;;4.93;;
14030;SDS011;7090;49.436;8.490;2023-04-25T03:41:06;8.23;;;7.57;;
14030;SDS011;7090;49.436;8.490;2023-04-25T03:43:32;7.00;;;6.60;;
14030;SDS011;7090;49.436;8.490;2023-04-25T03:45:58;6.97;;;6.47;;
14030;SDS011;7090;49.436;8.490;2023-04-25T03:48:23;6.80;;;6.17;;
14030;SDS011;7090;49.436;8.490;2023-04-25T03:50:51;6.97;;;6.60;;
14030;SDS011;7090;49.436;8.490;2023-04-25T03:53:17;7.40;;;7.00;;
14030;SDS011;7090;49.436;8.490;2023-04-25T03:55:42;7.60;;;7.10;;
14030;SDS011;7090;49.436;8.490;2023-04-25T03:58:08;7.70;;;7.30;;
14030;SDS011;7090;49.436;8.490;2023-04-25T04:00:34;8.03;;;7.33;;
14030;SDS011;7090;49.436;8.490;2023-04-25T04:03:00;6.00;;;5.80;;
14030;SDS011;7090;49.436;8.490;2023-04-25T04:05:25;7.00;;;6.60;;
14030;SDS011;7090;49.436;8.490;2023-04-25T04:07:52;5.73;;;5.53;;
14030;SDS011;7090;49.436;8.490;2023-04-25T04:10:18;5.80;;;5.50;;
14030;SDS011;7090;49.436;8.490;2023-04-25T04:12:43;6.23;;;5.83;;
14030;SDS011;7090;49.436;8.490;2023-04-25T04:15:09;6.23;;;5.97;;
14030;SDS011;7090;49.436;8.490;2023-04-25T04:17:35;7.47;;;7.07;;
14030;SDS011;7090;49.436;8.490;2023-04-25T04:20:01;5.27;;;5.07;;
14030;SDS011;7090;49.436;8.490;2023-04-25T04:22:28;6.23;;;5.93;;
14030;SDS011;7090;49.436;8.490;2023-04-25T04:24:53;7.40;;;7.00;;
14030;SDS011;7090;49.436;8.490;2023-04-25T04:27:19;7.70;;;7.30;;
14030;SDS011;7090;49.436;8.490;2023-04-25T04:29:46;6.97;;;6.70;;
14030;SDS011;7090;49.436;8.490;2023-04-25T04:32:12;5.90;;;5.60;;
14030;SDS011;7090;49.436;8.490;2023-04-25T04:34:39;6.30;;;6.10;;
14030;SDS011;7090;49.436;8.490;2023-04-25T04:37:04;6.60;;;6.27;;
14030;SDS011;7090;49.436;8.490;2023-04-25T04:39:31;5.10;;;4.90;;
14030;SDS011;7090;49.436;8.490;2023-04-25T04:42:00;6.53;;;6.33;;
14030;SDS011;7090;49.436;8.490;2023-04-25T04:44:30;7.63;;;7.03;;
14030;SDS011;7090;49.436;8.490;2023-04-25T04:47:00;6.87;;;6.57;;
14030;SDS011;7090;49.436;8.490;2023-04-25T04:49:26;6.87;;;6.37;;
14030;SDS011;7090;49.436;8.490;2023-04-25T04:51:52;5.63;;;5.43;;
14030;SDS011;7090;49.436;8.490;2023-04-25T04:54:19;5.22;;;5.03;;
14030;SDS011;7090;49.436;8.490;2023-04-25T04:56:45;4.83;;;4.73;;
14030;SDS011;7090;49.436;8.490;2023-04-25T04:59:10;5.40;;;5.20;;
14030;SDS011;7090;49.436;8.490;2023-04-25T05:01:36;8.33;;;7.70;;
14030;SDS011;7090;49.436;8.490;2023-04-25T05:04:02;6.03;;;5.63;;
14030;SDS011;7090;49.436;8.490;2023-04-25T05:06:29;9.03;;;8.53;;
14030;SDS011;7090;49.436;8.490;2023-04-25T05:08:57;6.70;;;6.40;;
14030;SDS011;7090;49.436;8.490;2023-04-25T05:11:23;6.00;;;5.80;;
14030;SDS011;7090;49.436;8.490;2023-04-25T05:13:51;5.57;;;5.37;;
14030;SDS011;7090;49.436;8.490;2023-04-25T05:16:17;5.70;;;5.50;;
14030;SDS011;7090;49.436;8.490;2023-04-25T05:18:43;5.97;;;5.77;;
14030;SDS011;7090;49.436;8.490;2023-04-25T05:21:08;6.90;;;6.60;;
14030;SDS011;7090;49.436;8.490;2023-04-25T05:23:34;6.10;;;5.90;;
14030;SDS011;7090;49.436;8.490;2023-04-25T05:26:00;7.03;;;6.73;;
14030;SDS011;7090;49.436;8.490;2023-04-25T05:28:26;6.20;;;6.00;;
14030;SDS011;7090;49.436;8.490;2023-04-25T05:30:51;6.73;;;6.53;;
14030;SDS011;7090;49.436;8.490;2023-04-25T05:33:17;6.30;;;6.10;;
14030;SDS011;7090;49.436;8.490;2023-04-25T05:35:43;6.83;;;6.63;;
14030;SDS011;7090;49.436;8.490;2023-04-25T05:38:08;6.50;;;6.30;;
14030;SDS011;7090;49.436;8.490;2023-04-25T05:40:34;6.57;;;6.37;;
14030;SDS011;7090;49.436;8.490;2023-04-25T05:43:00;6.40;;;6.20;;
14030;SDS011;7090;49.436;8.490;2023-04-25T05:45:26;6.60;;;6.40;;
14030;SDS011;7090;49.436;8.490;2023-04-25T05:47:51;6.30;;;6.10;;
14030;SDS011;7090;49.436;8.490;2023-04-25T05:50:17;6.70;;;6.50;;
14030;SDS011;7090;49.436;8.490;2023-04-25T05:52:43;6.90;;;6.70;;
14030;SDS011;7090;49.436;8.490;2023-04-25T05:55:08;7.53;;;7.23;;
14030;SDS011;7090;49.436;8.490;2023-04-25T05:57:34;7.73;;;7.43;;
14030;SDS011;7090;49.436;8.490;2023-04-25T06:00:00;7.33;;;7.07;;
14030;SDS011;7090;49.436;8.490;2023-04-25T06:02:26;7.23;;;7.00;;
14030;SDS011;7090;49.436;8.490;2023-04-25T06:04:52;7.57;;;7.27;;
14030;SDS011;7090;49.436;8.490;2023-04-25T06:07:21;7.70;;;7.40;;
14030;SDS011;7090;49.436;8.490;2023-04-25T06:09:47;8.57;;;8.17;;
14030;SDS011;7090;49.436;8.490;2023-04-25T06:12:12;8.73;;;8.33;;
14030;SDS011;7090;49.436;8.490;2023-04-25T06:14:38;9.03;;;8.63;;
14030;SDS011;7090;49.436;8.490;2023-04-25T06:17:03;7.80;;;7.50;;
14030;SDS011;7090;49.436;8.490;2023-04-25T06:19:33;8.83;;;8.33;;
14030;SDS011;7090;49.436;8.490;2023-04-25T06:22:00;9.00;;;8.60;;
14030;SDS011;7090;49.436;8.490;2023-04-25T06:24:26;9.48;;;9.07;;
14030;SDS011;7090;49.436;8.490;2023-04-25T06:26:52;9.87;;;9.43;;
14030;SDS011;7090;49.436;8.490;2023-04-25T06:29:18;9.17;;;8.77;;
14030;SDS011;7090;49.436;8.490;2023-04-25T06:31:44;9.37;;;8.97;;
14030;SDS011;7090;49.436;8.490;2023-04-25T06:34:09;9.30;;;8.90;;
14030;SDS011;7090;49.436;8.490;2023-04-25T06:36:35;11.13;;;10.43;;
14030;SDS011;7090;49.436;8.490;2023-04-25T06:39:01;11.83;;;11.13;;
14030;SDS011;7090;49.436;8.490;2023-04-25T06:41:27;9.40;;;9.00;;
14030;SDS011;7090;49.436;8.490;2023-04-25T06:43:52;8.90;;;8.50;;
14030;SDS011;7090;49.436;8.490;2023-04-25T06:46:18;10.23;;;9.73;;
14030;SDS011;7090;49.436;8.490;2023-04-25T06:48:43;13.77;;;12.43;;
14030;SDS011;7090;49.436;8.490;2023-04-25T06:51:09;13.63;;;12.93;;
14030;SDS011;7090;49.436;8.490;2023-04-25T06:53:35;18.70;;;17.40;;
14030;SDS011;7090;49.436;8.490;2023-04-25T06:56:01;17.93;;;16.57;;
14030;SDS011;7090;49.436;8.490;2023-04-25T06:58:26;16.10;;;15.20;;
14030;SDS011;7090;49.436;8.490;2023-04-25T07:00:52;17.87;;;16.77;;
14030;SDS011;7090;49.436;8.490;2023-04-25T07:03:17;18.43;;;17.13;;
14030;SDS011;7090;49.436;8.490;2023-04-25T07:05:43;16.20;;;15.30;;
14030;SDS011;7090;49.436;8.490;2023-04-25T07:08:10;16.40;;;15.50;;
14030;SDS011;7090;49.436;8.490;2023-04-25T07:10:36;16.10;;;15.17;;
14030;SDS011;7090;49.436;8.490;2023-04-25T07:13:01;15.63;;;14.73;;
14030;SDS011;7090;49.436;8.490;2023-04-25T07:15:27;17.20;;;16.10;;
14030;SDS011;7090;49.436;8.490;2023-04-25T07:17:53;16.67;;;15.60;;
14030;SDS011;7090;49.436;8.490;2023-04-25T07:20:18;14.93;;;14.13;;
14030;SDS011;7090;49.436;8.490;2023-04-25T07:22:44;16.53;;;15.23;;
14030;SDS011;7090;49.436;8.490;2023-04-25T07:25:09;16.20;;;15.30;;
14030;SDS011;7090;49.436;8.490;2023-04-25T07:27:35;20.10;;;18.43;;
14030;SDS011;7090;49.436;8.490;2023-04-25T07:30:01;14.47;;;13.77;;
14030;SDS011;7090;49.436;8.490;2023-04-25T07:32:27;14.77;;;13.97;;
14030;SDS011;7090;49.436;8.490;2023-04-25T07:34:52;14.87;;;14.13;;
14030;SDS011;7090;49.436;8.490;2023-04-25T07:37:18;15.30;;;14.50;;
14030;SDS011;7090;49.436;8.490;2023-04-25T07:39:44;20.00;;;18.80;;
14030;SDS011;7090;49.436;8.490;2023-04-25T07:42:13;14.47;;;13.77;;
14030;SDS011;7090;49.436;8.490;2023-04-25T07:44:38;17.40;;;16.30;;
14030;SDS011;7090;49.436;8.490;2023-04-25T07:47:08;16.57;;;15.43;;
14030;SDS011;7090;49.436;8.490;2023-04-25T07:49:38;16.37;;;15.47;;
14030;SDS011;7090;49.436;8.490;2023-04-25T07:52:05;16.43;;;15.40;;
14030;SDS011;7090;49.436;8.490;2023-04-25T07:54:33;15.57;;;14.40;;
14030;SDS011;7090;49.436;8.490;2023-04-25T07:56:59;14.77;;;13.87;;
14030;SDS011;7090;49.436;8.490;2023-04-25T07:59:25;13.23;;;12.53;;
14030;SDS011;7090;49.436;8.490;2023-04-25T08:01:51;12.33;;;11.83;;
14030;SDS011;7090;49.436;8.490;2023-04-25T08:04:16;11.20;;;10.70;;
14030;SDS011;7090;49.436;8.490;2023-04-25T08:06:42;11.97;;;11.10;;
14030;SDS011;7090;49.436;8.490;2023-04-25T08:09:08;10.00;;;9.60;;
14030;SDS011;7090;49.436;8.490;2023-04-25T08:11:34;9.67;;;9.27;;
14030;SDS011;7090;49.436;8.490;2023-04-25T08:14:00;11.25;;;10.68;;
14030;SDS011;7090;49.436;8.490;2023-04-25T08:16:26;11.17;;;10.67;;
14030;SDS011;7090;49.436;8.490;2023-04-25T08:18:52;11.00;;;10.50;;
14030;SDS011;7090;49.436;8.490;2023-04-25T08:21:18;13.07;;;12.27;;
14030;SDS011;7090;49.436;8.490;2023-04-25T08:23:45;11.65;;;11.07;;
14030;SDS011;7090;49.436;8.490;2023-04-25T08:26:10;12.33;;;11.63;;
14030;SDS011;7090;49.436;8.490;2023-04-25T08:28:36;10.87;;;10.37;;
14030;SDS011;7090;49.436;8.490;2023-04-25T08:31:02;11.27;;;10.70;;
14030;SDS011;7090;49.436;8.490;2023-04-25T08:33:27;11.13;;;10.43;;
14030;SDS011;7090;49.436;8.490;2023-04-25T08:35:53;11.27;;;10.60;;
14030;SDS011;7090;49.436;8.490;2023-04-25T08:38:19;9.82;;;9.32;;
14030;SDS011;7090;49.436;8.490;2023-04-25T08:40:46;9.70;;;9.20;;
14030;SDS011;7090;49.436;8.490;2023-04-25T08:43:15;20.10;;;10.43;;
14030;SDS011;7090;49.436;8.490;2023-04-25T08:45:43;8.90;;;8.40;;
14030;SDS011;7090;49.436;8.490;2023-04-25T08:48:13;7.83;;;7.53;;
14030;SDS011;7090;49.436;8.490;2023-04-25T08:50:44;8.30;;;8.00;;
14030;SDS011;7090;49.436;8.490;2023-04-25T08:53:15;10.40;;;9.60;;
14030;SDS011;7090;49.436;8.490;2023-04-25T08:55:44;8.93;;;8.53;;
14030;SDS011;7090;49.436;8.490;2023-04-25T08:58:11;8.57;;;8.17;;
14030;SDS011;7090;49.436;8.490;2023-04-25T09:00:38;10.63;;;9.20;;
14030;SDS011;7090;49.436;8.490;2023-04-25T09:03:04;9.27;;;8.50;;
14030;SDS011;7090;49.436;8.490;2023-04-25T09:05:31;7.50;;;7.10;;
14030;SDS011;7090;49.436;8.490;2023-04-25T09:07:57;8.43;;;7.93;;
14030;SDS011;7090;49.436;8.490;2023-04-25T09:10:23;9.17;;;8.53;;
14030;SDS011;7090;49.436;8.490;2023-04-25T09:13:05;7.50;;;7.20;;
14030;SDS011;7090;49.436;8.490;2023-04-25T09:15:34;8.70;;;8.17;;
14030;SDS011;7090;49.436;8.490;2023-04-25T09:18:25;7.70;;;7.40;;
14030;SDS011;7090;49.436;8.490;2023-04-25T09:20:55;9.00;;;8.50;;
14030;SDS011;7090;49.436;8.490;2023-04-25T09:23:22;7.73;;;7.43;;
14030;SDS011;7090;49.436;8.490;2023-04-25T09:25:52;7.67;;;7.37;;
14030;SDS011;7090;49.436;8.490;2023-04-25T09:28:25;8.93;;;8.43;;
14030;SDS011;7090;49.436;8.490;2023-04-25T09:30:55;9.83;;;7.73;;
14030;SDS011;7090;49.436;8.490;2023-04-25T09:33:26;8.60;;;8.10;;
14030;SDS011;7090;49.436;8.490;2023-04-25T09:36:07;8.23;;;7.83;;
14030;SDS011;7090;49.436;8.490;2023-04-25T09:38:52;8.90;;;8.33;;
14030;SDS011;7090;49.436;8.490;2023-04-25T09:41:22;9.13;;;8.38;;
14030;SDS011;7090;49.436;8.490;2023-04-25T09:43:52;7.68;;;7.38;;
14030;SDS011;7090;49.436;8.490;2023-04-25T09:46:23;9.10;;;8.25;;
14030;SDS011;7090;49.436;8.490;2023-04-25T09:48:50;9.45;;;8.88;;
14030;SDS011;7090;49.436;8.490;2023-04-25T09:51:16;9.05;;;8.55;;
14030;SDS011;7090;49.436;8.490;2023-04-25T09:53:45;8.32;;;7.82;;
14030;SDS011;7090;49.436;8.490;2023-04-25T09:56:15;8.30;;;7.88;;
14030;SDS011;7090;49.436;8.490;2023-04-25T09:58:41;8.32;;;7.78;;
14030;SDS011;7090;49.436;8.490;2023-04-25T10:01:08;7.60;;;7.20;;
14030;SDS011;7090;49.436;8.490;2023-04-25T10:03:36;7.90;;;7.40;;
14030;SDS011;7090;49.436;8.490;2023-04-25T10:06:08;8.73;;;7.20;;
14030;SDS011;7090;49.436;8.490;2023-04-25T10:08:37;8.77;;;8.27;;
14030;SDS011;7090;49.436;8.490;2023-04-25T10:11:06;7.30;;;7.00;;
14030;SDS011;7090;49.436;8.490;2023-04-25T10:13:33;8.23;;;7.83;;
14030;SDS011;7090;49.436;8.490;2023-04-25T10:16:00;8.02;;;7.45;;
14030;SDS011;7090;49.436;8.490;2023-04-25T10:18:27;7.60;;;7.10;;
14030;SDS011;7090;49.436;8.490;2023-04-25T10:20:54;7.85;;;7.45;;
14030;SDS011;7090;49.436;8.490;2023-04-25T10:23:24;8.90;;;8.30;;
14030;SDS011;7090;49.436;8.490;2023-04-25T10:25:51;7.25;;;6.90;;
14030;SDS011;7090;49.436;8.490;2023-04-25T10:28:17;8.57;;;7.97;;
14030;SDS011;7090;49.436;8.490;2023-04-25T10:33:32;7.78;;;7.47;;
14030;SDS011;7090;49.436;8.490;2023-04-25T10:36:07;8.48;;;8.07;;
14030;SDS011;7090;49.436;8.490;2023-04-25T10:38:38;7.78;;;7.38;;
14030;SDS011;7090;49.436;8.490;2023-04-25T10:41:04;8.90;;;8.20;;
14030;SDS011;7090;49.436;8.490;2023-04-25T10:46:01;7.60;;;7.25;;
14030;SDS011;7090;49.436;8.490;2023-04-25T10:48:28;6.60;;;6.30;;
14030;SDS011;7090;49.436;8.490;2023-04-25T10:51:11;7.47;;;7.07;;
14030;SDS011;7090;49.436;8.490;2023-04-25T10:53:40;7.63;;;7.23;;
14030;SDS011;7090;49.436;8.490;2023-04-25T10:56:10;11.23;;;7.90;;
14030;SDS011;7090;49.436;8.490;2023-04-25T10:58:45;7.55;;;7.00;;
14030;SDS011;7090;49.436;8.490;2023-04-25T11:01:12;7.57;;;7.28;;
14030;SDS011;7090;49.436;8.490;2023-04-25T11:03:42;7.10;;;6.80;;
14030;SDS011;7090;49.436;8.490;2023-04-25T11:06:33;7.77;;;7.10;;
14030;SDS011;7090;49.436;8.490;2023-04-25T11:08:59;7.40;;;7.10;;
14030;SDS011;7090;49.436;8.490;2023-04-25T11:11:26;7.60;;;7.20;;
14030;SDS011;7090;49.436;8.490;2023-04-25T11:13:51;6.90;;;6.60;;
14030;SDS011;7090;49.436;8.490;2023-04-25T11:16:17;7.50;;;7.10;;
14030;SDS011;7090;49.436;8.490;2023-04-25T11:18:43;7.57;;;7.10;;
14030;SDS011;7090;49.436;8.490;2023-04-25T11:21:09;7.50;;;7.17;;
14030;SDS011;7090;49.436;8.490;2023-04-25T11:23:35;8.05;;;7.65;;
14030;SDS011;7090;49.436;8.490;2023-04-25T11:26:02;8.18;;;7.78;;
14030;SDS011;7090;49.436;8.490;2023-04-25T11:28:28;7.40;;;7.10;;
14030;SDS011;7090;49.436;8.490;2023-04-25T11:30:54;7.75;;;7.35;;
14030;SDS011;7090;49.436;8.490;2023-04-25T11:33:23;8.02;;;7.72;;
14030;SDS011;7090;49.436;8.490;2023-04-25T11:35:50;7.57;;;7.10;;
14030;SDS011;7090;49.436;8.490;2023-04-25T11:38:17;6.80;;;6.60;;
14030;SDS011;7090;49.436;8.490;2023-04-25T11:40:43;7.07;;;6.78;;
14030;SDS011;7090;49.436;8.490;2023-04-25T11:43:08;7.93;;;7.43;;
14030;SDS011;7090;49.436;8.490;2023-04-25T11:45:36;6.95;;;6.65;;
14030;SDS011;7090;49.436;8.490;2023-04-25T11:48:02;7.15;;;6.85;;
14030;SDS011;7090;49.436;8.490;2023-04-25T11:50:28;8.20;;;7.72;;
14030;SDS011;7090;49.436;8.490;2023-04-25T11:52:55;7.78;;;7.38;;
14030;SDS011;7090;49.436;8.490;2023-04-25T11:55:21;7.70;;;7.40;;
14030;SDS011;7090;49.436;8.490;2023-04-25T11:57:47;8.10;;;7.70;;
14030;SDS011;7090;49.436;8.490;2023-04-25T12:00:16;7.32;;;6.95;;
14030;SDS011;7090;49.436;8.490;2023-04-25T12:02:44;7.30;;;6.95;;
14030;SDS011;7090;49.436;8.490;2023-04-25T12:05:17;7.60;;;7.20;;
14030;SDS011;7090;49.436;8.490;2023-04-25T12:07:44;8.40;;;7.90;;
14030;SDS011;7090;49.436;8.490;2023-04-25T12:10:12;7.60;;;7.20;;
14030;SDS011;7090;49.436;8.490;2023-04-25T12:12:42;7.25;;;6.95;;
14030;SDS011;7090;49.436;8.490;2023-04-25T12:15:43;7.72;;;7.38;;
14030;SDS011;7090;49.436;8.490;2023-04-25T12:18:05;8.43;;;7.88;;
14030;SDS011;7090;49.436;8.490;2023-04-25T12:20:31;8.00;;;7.55;;
14030;SDS011;7090;49.436;8.490;2023-04-25T12:22:57;7.03;;;6.73;;
14030;SDS011;7090;49.436;8.490;2023-04-25T12:25:35;8.18;;;7.70;;
14030;SDS011;7090;49.436;8.490;2023-04-25T12:28:19;7.78;;;7.25;;
14030;SDS011;7090;49.436;8.490;2023-04-25T12:31:21;8.93;;;8.38;;
14030;SDS011;7090;49.436;8.490;2023-04-25T12:33:41;7.37;;;7.07;;
14030;SDS011;7090;49.436;8.490;2023-04-25T12:36:08;7.70;;;7.40;;
14030;SDS011;7090;49.436;8.490;2023-04-25T12:38:39;8.70;;;8.30;;
14030;SDS011;7090;49.436;8.490;2023-04-25T12:41:06;7.90;;;7.60;;
14030;SDS011;7090;49.436;8.490;2023-04-25T12:43:32;7.75;;;7.45;;
14030;SDS011;7090;49.436;8.490;2023-04-25T12:45:58;7.47;;;7.18;;
14030;SDS011;7090;49.436;8.490;2023-04-25T12:48:23;7.63;;;7.32;;
14030;SDS011;7090;49.436;8.490;2023-04-25T12:50:49;7.78;;;7.47;;
14030;SDS011;7090;49.436;8.490;2023-04-25T12:53:16;8.20;;;7.80;;
14030;SDS011;7090;49.436;8.490;2023-04-25T12:55:44;8.77;;;8.25;;
14030;SDS011;7090;49.436;8.490;2023-04-25T12:58:13;7.40;;;7.10;;
14030;SDS011;7090;49.436;8.490;2023-04-25T13:00:39;8.07;;;7.68;;
14030;SDS011;7090;49.436;8.490;2023-04-25T13:03:05;7.63;;;7.32;;
14030;SDS011;7090;49.436;8.490;2023-04-25T13:05:31;11.05;;;7.55;;
14030;SDS011;7090;49.436;8.490;2023-04-25T13:07:56;7.30;;;7.00;;
14030;SDS011;7090;49.436;8.490;2023-04-25T13:10:22;7.13;;;6.82;;
14030;SDS011;7090;49.436;8.490;2023-04-25T13:12:48;7.63;;;7.32;;
14030;SDS011;7090;49.436;8.490;2023-04-25T13:15:13;7.63;;;7.30;;
14030;SDS011;7090;49.436;8.490;2023-04-25T13:17:40;7.10;;;6.80;;
14030;SDS011;7090;49.436;8.490;2023-04-25T13:20:07;7.53;;;7.22;;
14030;SDS011;7090;49.436;8.490;2023-04-25T13:22:34;9.20;;;8.50;;
14030;SDS011;7090;49.436;8.490;2023-04-25T13:25:04;7.68;;;7.38;;
14030;SDS011;7090;49.436;8.490;2023-04-25T13:27:32;8.13;;;7.40;;
14030;SDS011;7090;49.436;8.490;2023-04-25T13:29:59;7.95;;;7.65;;
14030;SDS011;7090;49.436;8.490;2023-04-25T13:32:26;8.02;;;7.43;;
14030;SDS011;7090;49.436;8.490;2023-04-25T13:34:52;8.35;;;7.88;;
14030;SDS011;7090;49.436;8.490;2023-04-25T13:37:18;7.30;;;7.00;;
14030;SDS011;7090;49.436;8.490;2023-04-25T13:39:44;7.68;;;7.35;;
14030;SDS011;7090;49.436;8.490;2023-04-25T13:42:09;7.22;;;6.93;;
14030;SDS011;7090;49.436;8.490;2023-04-25T13:44:36;7.60;;;7.30;;
14030;SDS011;7090;49.436;8.490;2023-04-25T13:47:01;8.30;;;7.90;;
14030;SDS011;7090;49.436;8.490;2023-04-25T13:49:27;7.05;;;6.75;;
14030;SDS011;7090;49.436;8.490;2023-04-25T13:51:53;8.77;;;8.32;;
14030;SDS011;7090;49.436;8.490;2023-04-25T13:54:18;7.47;;;7.10;;
14030;SDS011;7090;49.436;8.490;2023-04-25T13:56:44;8.13;;;7.72;;
14030;SDS011;7090;49.436;8.490;2023-04-25T13:59:10;7.88;;;7.50;;
14030;SDS011;7090;49.436;8.490;2023-04-25T14:01:36;7.28;;;6.97;;
14030;SDS011;7090;49.436;8.490;2023-04-25T14:04:02;7.67;;;7.37;;
14030;SDS011;7090;49.436;8.490;2023-04-25T14:06:31;14.00;;;7.50;;
14030;SDS011;7090;49.436;8.490;2023-04-25T14:08:57;8.60;;;8.18;;
14030;SDS011;7090;49.436;8.490;2023-04-25T14:11:22;7.97;;;7.55;;
14030;SDS011;7090;49.436;8.490;2023-04-25T14:13:48;7.20;;;6.90;;
14030;SDS011;7090;49.436;8.490;2023-04-25T14:16:14;7.60;;;7.30;;
14030;SDS011;7090;49.436;8.490;2023-04-25T14:18:40;7.90;;;7.50;;
14030;SDS011;7090;49.436;8.490;2023-04-25T14:21:06;6.50;;;6.30;;
14030;SDS011;7090;49.436;8.490;2023-04-25T14:23:32;7.60;;;7.23;;
14030;SDS011;7090;49.436;8.490;2023-04-25T14:25:57;9.37;;;7.90;;
14030;SDS011;7090;49.436;8.490;2023-04-25T14:28:23;7.88;;;7.57;;
14030;SDS011;7090;49.436;8.490;2023-04-25T14:30:48;6.70;;;6.50;;
14030;SDS011;7090;49.436;8.490;2023-04-25T14:33:14;7.40;;;7.10;;
14030;SDS011;7090;49.436;8.490;2023-04-25T14:35:39;6.90;;;6.70;;
14030;SDS011;7090;49.436;8.490;2023-04-25T14:38:05;7.30;;;6.93;;
14030;SDS011;7090;49.436;8.490;2023-04-25T14:40:31;7.45;;;7.05;;
14030;SDS011;7090;49.436;8.490;2023-04-25T14:42:56;7.43;;;7.03;;
14030;SDS011;7090;49.436;8.490;2023-04-25T14:45:22;6.50;;;6.30;;
14030;SDS011;7090;49.436;8.490;2023-04-25T14:47:47;7.20;;;6.90;;
14030;SDS011;7090;49.436;8.490;2023-04-25T14:50:13;7.10;;;6.80;;
14030;SDS011;7090;49.436;8.490;2023-04-25T14:52:39;9.37;;;8.77;;
14030;SDS011;7090;49.436;8.490;2023-04-25T14:55:05;7.00;;;6.77;;
14030;SDS011;7090;49.436;8.490;2023-04-25T14:57:33;7.67;;;7.37;;
14030;SDS011;7090;49.436;8.490;2023-04-25T15:00:00;9.33;;;8.83;;
14030;SDS011;7090;49.436;8.490;2023-04-25T15:02:26;7.73;;;7.43;;